Manitou Beach, Washington
Current Conditions -  °F | °C
As of 11:53 PM on Sunday 23 Nov 2014 (Local Time) from KBFI Reporting Station
Clear Clear  
Wind Chill: 45°   Ceiling: Unl
Heat Index: 45°   Visibility: 10mi
Dew Point: 40°   Wind: 3mph
Humidity: 82%   Direction: 130°SE
Pressure: 30.37"   Gusts: NA
Location:  47.6559°N, 122.509°W
Report Text: KBFI 240753Z 13003KT 10SM CLR 07/04 A3037 RMK AO2 SLP282 T00720044 401390067
Loading
Personal Weather Stations






























Interactive Weather Map New forecast layout! Learn more

10-Day Weather Forecast

Advertisements
Track Severe Weather on mobile